Time;durP1;ratioP1;P1;durP2;ratioP2;P2;SDS_P1;SDS_P2;PMS_P1;PMS_P2;Temp;Humidity;BMP_temperature;BMP_pressure;BME280_temperature;BME280_humidity;BME280_pressure;Samples;Min_cycle;Max_cycle;Signal;HPM_P1;HPM_P2
2021/12/06 00:01:31;;;;;;;38.30;22.60;;;;;;;-1.60;85.44;99153.97;1771564;80;21035;-63
2021/12/06 00:04:13;;;;;;;41.80;24.18;;;;;;;-1.60;85.43;99162.80;1788214;79;21036;-63
2021/12/06 00:06:42;;;;;;;40.15;24.32;;;;;;;-1.60;85.48;99157.97;1791328;79;20947;-63
2021/12/06 00:09:11;;;;;;;40.78;22.95;;;;;;;-1.60;85.49;99158.80;1762981;79;21052;-64
2021/12/06 00:11:38;;;;;;;37.83;22.85;;;;;;;-1.58;85.53;99159.40;1770629;81;21482;-63
2021/12/06 00:14:05;;;;;;;40.17;23.67;;;;;;;-1.56;85.50;99156.00;1756577;79;21067;-65
2021/12/06 00:16:33;;;;;;;38.40;23.85;;;;;;;-1.56;85.55;99160.00;1729932;82;21429;-62
2021/12/06 00:19:00;;;;;;;39.05;24.02;;;;;;;-1.52;85.55;99159.06;1778123;80;21137;-63
2021/12/06 00:21:26;;;;;;;38.15;24.00;;;;;;;-1.52;85.56;99163.90;1775390;81;21087;-63
2021/12/06 00:23:53;;;;;;;41.98;25.17;;;;;;;-1.50;85.53;99163.70;1764643;79;21044;-63
2021/12/06 00:26:19;;;;;;;36.68;21.10;;;;;;;-1.49;85.58;99166.69;1773599;79;21038;-63
2021/12/06 00:28:46;;;;;;;41.92;25.27;;;;;;;-1.46;85.56;99158.77;1769162;81;21087;-63
2021/12/06 00:31:14;;;;;;;40.88;24.23;;;;;;;-1.48;85.60;99154.13;1699109;84;21040;-63
2021/12/06 00:33:42;;;;;;;37.80;23.83;;;;;;;-1.43;85.57;99155.67;1693650;84;21621;-63
2021/12/06 00:36:15;;;;;;;;;;;;;;;-1.42;85.53;99157.33;1804219;79;20996;-63
2021/12/06 00:38:36;;;;;;;43.98;24.10;;;;;;;-1.40;85.57;99161.93;1815180;79;20106;-63
2021/12/06 00:41:03;;;;;;;39.33;23.55;;;;;;;-1.44;85.63;99162.03;1774381;79;21068;-63
2021/12/06 00:43:30;;;;;;;40.12;23.87;;;;;;;-1.42;85.67;99157.33;1775581;81;21055;-63
2021/12/06 00:45:56;;;;;;;38.02;22.90;;;;;;;-1.39;85.69;99164.41;1770327;79;20945;-64
2021/12/06 00:48:22;;;;;;;36.77;22.32;;;;;;;-1.35;85.67;99158.13;1767282;81;21070;-64
2021/12/06 00:50:49;;;;;;;38.48;21.62;;;;;;;-1.32;85.68;99162.54;1752359;81;21003;-63
2021/12/06 00:53:15;;;;;;;38.80;23.52;;;;;;;-1.29;85.62;99162.63;1748521;79;21039;-63
2021/12/06 00:55:43;;;;;;;39.67;24.55;;;;;;;-1.27;85.57;99164.05;1772703;79;21020;-63
2021/12/06 00:58:09;;;;;;;;;;;;;;;-1.27;85.60;99160.55;1765031;81;21039;-63
2021/12/06 01:00:43;;;;;;;34.80;21.07;;;;;;;-1.26;85.69;99159.53;1776555;81;20432;-63
2021/12/06 01:03:16;;;;;;;42.00;24.23;;;;;;;-1.29;85.72;99154.11;1781032;79;21048;-63
2021/12/06 01:05:45;;;;;;;41.63;24.43;;;;;;;-1.29;85.82;99155.44;1776377;79;20992;-63
2021/12/06 01:08:11;;;;;;;37.17;22.73;;;;;;;-1.24;85.78;99152.15;1752855;80;22036;-63
2021/12/06 01:10:38;;;;;;;37.00;23.25;;;;;;;-1.24;85.72;99154.28;1771186;80;21061;-62
2021/12/06 01:13:05;;;;;;;37.45;23.27;;;;;;;-1.24;85.79;99144.14;1758163;79;21055;-63
2021/12/06 01:15:32;;;;;;;40.12;25.02;;;;;;;-1.24;85.77;99134.25;1770624;79;21597;-63
2021/12/06 01:18:01;;;;;;;32.83;20.17;;;;;;;-1.23;85.81;99139.08;1752775;81;21052;-63
2021/12/06 01:20:31;;;;;;;38.73;23.12;;;;;;;-1.22;85.83;99137.55;1748286;82;21569;-63
2021/12/06 01:23:04;;;;;;;39.92;23.47;;;;;;;-1.19;85.86;99137.63;1690816;85;21465;-63
2021/12/06 01:33:35;;;;;;;34.45;21.73;;;;;;;-1.15;85.91;99127.66;1752317;81;21072;-63
2021/12/06 01:41:16;;;;;;;33.55;20.72;;;;;;;-1.10;85.84;99121.69;1766353;79;21013;-63
2021/12/06 01:44:10;;;;;;;30.80;18.75;;;;;;;-1.13;85.99;99118.91;1757086;79;21057;-63
2021/12/06 01:46:47;;;;;;;36.75;21.33;;;;;;;-1.07;85.97;99119.93;1757232;79;21020;-63
2021/12/06 01:49:15;;;;;;;33.78;20.27;;;;;;;-1.02;85.92;99114.75;1779873;80;21625;-63
2021/12/06 01:51:42;;;;;;;34.73;21.60;;;;;;;-1.02;85.92;99122.77;1782340;79;21419;-64
2021/12/06 01:54:11;;;;;;;30.57;19.12;;;;;;;-1.04;85.99;99117.66;1716932;82;21099;-63
2021/12/06 01:56:39;;;;;;;33.05;20.70;;;;;;;-1.01;86.03;99123.08;1762836;80;21493;-63
2021/12/06 01:59:05;;;;;;;29.45;18.60;;;;;;;-0.97;85.96;99112.28;1725163;82;21102;-63
2021/12/06 02:01:32;;;;;;;;;;;;;;;-0.94;85.90;99113.19;1762562;79;21031;-63
2021/12/06 02:03:59;;;;;;;30.70;19.15;;;;;;;-0.95;85.88;99108.86;1765861;79;20422;-63
2021/12/06 02:06:25;;;;;;;;;;;;;;;-1.01;86.12;99115.06;1815411;79;21008;-63
2021/12/06 02:08:52;;;;;;;30.97;18.40;;;;;;;-0.96;86.22;99110.43;1801974;79;20148;-63
2021/12/06 02:11:19;;;;;;;32.33;20.55;;;;;;;-0.94;86.17;99113.69;1777822;79;21074;-64
2021/12/06 02:13:52;;;;;;;;;;;;;;;-0.91;86.09;99116.76;1776905;79;21843;-63
2021/12/06 02:16:18;;;;;;;29.63;19.00;;;;;;;-0.91;86.06;99103.40;1781442;79;20462;-63
2021/12/06 02:18:48;;;;;;;29.57;19.00;;;;;;;-0.99;86.26;99104.97;1760255;80;21477;-64
2021/12/06 02:21:27;;;;;;;30.00;18.95;;;;;;;-0.93;86.28;99104.14;1743071;82;20972;-63
2021/12/06 02:23:54;;;;;;;29.10;18.48;;;;;;;-0.87;86.18;99101.94;1753118;80;21033;-63
2021/12/06 02:26:20;;;;;;;;;;;;;;;-0.86;86.07;99095.58;1780175;79;20997;-63
2021/12/06 02:28:47;;;;;;;27.32;17.20;;;;;;;-0.87;86.14;99095.77;1723933;82;20095;-63
2021/12/06 02:31:16;;;;;;;29.87;18.82;;;;;;;-0.90;86.27;99102.37;1769008;80;21082;-63
2021/12/06 02:33:45;;;;;;;28.00;18.45;;;;;;;-0.84;86.23;99102.02;1774496;79;21062;-63
2021/12/06 02:36:11;;;;;;;27.37;18.05;;;;;;;-0.79;86.13;99110.23;1722385;82;21047;-62
2021/12/06 02:38:39;;;;;;;28.60;18.65;;;;;;;-0.79;86.06;99112.39;1747037;80;21096;-63
2021/12/06 02:41:08;;;;;;;27.82;18.23;;;;;;;-0.80;86.16;99105.41;1783622;80;21067;-63
2021/12/06 02:43:34;;;;;;;26.90;18.10;;;;;;;-0.78;86.24;99109.20;1774030;79;21032;-63
2021/12/06 02:46:01;;;;;;;26.57;17.42;;;;;;;-0.72;86.14;99113.17;1803373;79;21098;-63
2021/12/06 02:48:28;;;;;;;25.43;17.35;;;;;;;-0.68;86.03;99103.70;1757151;80;21075;-63
2021/12/06 02:50:57;;;;;;;23.47;15.70;;;;;;;-0.65;85.96;99106.45;1734611;82;21007;-63
2021/12/06 02:53:25;;;;;;;27.13;18.32;;;;;;;-0.66;85.91;99098.95;1779548;79;21030;-63
2021/12/06 02:55:57;;;;;;;28.23;18.85;;;;;;;-0.72;86.01;99108.34;1719037;82;22688;-63
2021/12/06 03:01:15;;;;;;;28.15;17.62;;;;;;;-0.69;86.07;99110.07;1721153;82;21038;-64
2021/12/06 03:03:42;;;;;;;23.80;16.50;;;;;;;-0.65;86.01;99113.95;1790667;79;21106;-63
2021/12/06 03:06:11;;;;;;;27.07;18.80;;;;;;;-0.67;86.06;99112.00;1782676;79;21039;-63
2021/12/06 03:08:50;;;;;;;27.80;18.73;;;;;;;-0.70;86.21;99117.78;1711937;83;21078;-63
2021/12/06 03:11:23;;;;;;;29.18;19.35;;;;;;;-0.64;86.30;99118.80;1734379;82;21019;-63
2021/12/06 03:13:50;;;;;;;27.82;18.67;;;;;;;-0.57;86.16;99121.70;1758925;79;21036;-63
2021/12/06 03:16:16;;;;;;;;;;;;;;;-0.57;86.10;99123.58;1775967;79;21506;-63
2021/12/06 03:18:44;;;;;;;26.80;18.57;;;;;;;-0.59;86.19;99117.61;1747480;82;20135;-63
2021/12/06 03:21:11;;;;;;;27.22;18.42;;;;;;;-0.62;86.38;99117.53;1748106;81;21012;-62
2021/12/06 03:23:38;;;;;;;;;;;;;;;-0.53;86.40;99126.10;1714800;82;21039;-63
2021/12/06 03:26:05;;;;;;;27.98;18.55;;;;;;;-0.47;86.23;99123.10;1698433;82;20111;-63
2021/12/06 03:28:39;;;;;;;30.45;18.92;;;;;;;-0.48;86.26;99122.79;1716113;82;21666;-63
2021/12/06 03:31:06;;;;;;;31.75;20.12;;;;;;;-0.51;86.27;99119.52;1699952;82;21016;-63
2021/12/06 03:33:37;;;;;;;30.90;19.48;;;;;;;-0.53;86.42;99120.24;1776683;81;21063;-63
2021/12/06 03:36:06;;;;;;;31.70;20.50;;;;;;;-0.50;86.46;99118.47;1798645;79;21597;-63
2021/12/06 03:38:35;;;;;;;29.32;19.17;;;;;;;-0.44;86.34;99125.34;1748343;81;21040;-62
2021/12/06 03:41:03;;;;;;;27.25;18.73;;;;;;;-0.41;86.25;99129.73;1701207;83;21348;-62
2021/12/06 03:43:31;;;;;;;32.75;21.17;;;;;;;-0.40;86.22;99130.56;1764468;79;20996;-63
2021/12/06 03:45:58;;;;;;;31.82;20.80;;;;;;;-0.43;86.30;99123.80;1796894;79;21535;-63
2021/12/06 03:48:25;;;;;;;32.25;20.82;;;;;;;-0.43;86.41;99125.66;1760175;81;21133;-62
2021/12/06 03:50:52;;;;;;;28.83;19.65;;;;;;;-0.38;86.33;99124.47;1768920;81;21566;-63
2021/12/06 03:53:19;;;;;;;;;;;;;;;-0.33;86.24;99116.63;1710495;84;21029;-62
2021/12/06 03:55:46;;;;;;;30.32;20.17;;;;;;;-0.29;86.18;99113.83;1711057;84;20101;-63
2021/12/06 03:58:13;;;;;;;29.90;19.87;;;;;;;-0.36;86.34;99117.06;1748317;81;21062;-62
2021/12/06 04:00:40;;;;;;;;;;;;;;;-0.39;86.53;99117.50;1759384;81;21474;-63
2021/12/06 04:03:07;;;;;;;31.25;20.45;;;;;;;-0.36;86.65;99106.38;1754754;81;20101;-63
2021/12/06 04:05:34;;;;;;;29.40;19.75;;;;;;;-0.34;86.61;99106.95;1708335;82;21106;-63
2021/12/06 04:08:01;;;;;;;28.83;19.07;;;;;;;-0.31;86.53;99110.02;1777040;81;21056;-63
2021/12/06 04:10:29;;;;;;;30.15;19.48;;;;;;;-0.31;86.50;99115.37;1777590;81;21082;-63
2021/12/06 04:12:58;;;;;;;30.80;19.95;;;;;;;-0.36;86.62;99113.88;1757778;79;21059;-64
2021/12/06 04:15:28;;;;;;;31.23;20.85;;;;;;;-0.35;86.69;99108.81;1771162;81;21039;-63
2021/12/06 04:17:54;;;;;;;31.75;21.33;;;;;;;-0.30;86.66;99101.48;1719493;82;21113;-63
2021/12/06 04:20:21;;;;;;;30.95;20.90;;;;;;;-0.26;86.55;99106.70;1761347;79;21070;-63
2021/12/06 04:22:48;;;;;;;29.42;20.15;;;;;;;-0.25;86.51;99103.79;1776627;81;21045;-63
2021/12/06 04:25:17;;;;;;;31.85;21.20;;;;;;;-0.28;86.60;99105.56;1707801;84;21069;-64
2021/12/06 04:27:51;;;;;;;34.92;22.87;;;;;;;-0.28;86.71;99102.89;1790408;79;21051;-63
2021/12/06 04:30:13;;;;;;;35.45;23.52;;;;;;;-0.24;86.68;99102.77;1780103;79;21541;-63
2021/12/06 04:32:40;;;;;;;35.73;22.27;;;;;;;-0.20;86.65;99104.48;1776718;81;21039;-63
2021/12/06 04:35:07;;;;;;;;;;;;;;;-0.15;86.61;99106.83;1785042;79;21521;-66
2021/12/06 04:37:34;;;;;;;36.98;23.47;;;;;;;-0.13;86.58;99114.61;1761272;79;20097;-66
2021/12/06 04:40:01;;;;;;;29.98;20.48;;;;;;;-0.22;86.83;99115.94;1737210;82;21525;-66
2021/12/06 04:42:27;;;;;;;34.55;22.30;;;;;;;-0.21;87.01;99122.90;1756060;80;21055;-65
2021/12/06 04:44:55;;;;;;;33.45;22.45;;;;;;;-0.16;86.96;99119.07;1769165;81;21701;-65
2021/12/06 04:47:22;;;;;;;36.42;24.30;;;;;;;-0.13;86.87;99119.45;1765437;79;21067;-65
2021/12/06 04:49:48;;;;;;;38.53;24.45;;;;;;;-0.11;86.82;99116.58;1756127;80;21045;-66
2021/12/06 04:52:15;;;;;;;34.33;22.67;;;;;;;-0.16;86.88;99122.57;1755931;82;21030;-65
2021/12/06 04:54:46;;;;;;;32.95;22.07;;;;;;;-0.15;87.00;99124.73;1755730;81;21018;-65
2021/12/06 04:57:19;;;;;;;34.75;23.05;;;;;;;-0.12;86.97;99129.12;1726083;80;21500;-65
2021/12/06 04:59:54;;;;;;;33.40;21.57;;;;;;;-0.10;86.94;99119.52;1767909;79;20992;-65
2021/12/06 05:02:25;;;;;;;40.03;27.35;;;;;;;-0.09;86.92;99115.83;1786128;79;21097;-65
2021/12/06 05:04:56;;;;;;;35.95;22.73;;;;;;;-0.11;86.94;99124.59;1789571;79;21114;-66
2021/12/06 05:07:34;;;;;;;36.63;24.32;;;;;;;-0.13;87.06;99119.45;1781021;79;21091;-65
2021/12/06 05:10:01;;;;;;;32.80;21.55;;;;;;;-0.09;87.08;99130.54;1744610;80;21500;-66
2021/12/06 05:12:30;;;;;;;33.33;21.97;;;;;;;-0.09;87.05;99118.50;1786692;80;21094;-65
2021/12/06 05:14:59;;;;;;;30.80;20.97;;;;;;;-0.09;87.06;99123.84;1787125;79;21047;-66
2021/12/06 05:17:28;;;;;;;32.13;22.22;;;;;;;-0.08;87.08;99125.50;1814757;79;21596;-67
2021/12/06 05:19:56;;;;;;;31.90;20.25;;;;;;;-0.06;87.11;99124.75;1822102;79;21046;-67
2021/12/06 05:22:24;;;;;;;31.17;21.07;;;;;;;-0.09;87.16;99121.17;1821790;79;21039;-66
2021/12/06 05:24:52;;;;;;;39.00;24.70;;;;;;;-0.10;87.26;99125.70;1822115;79;20995;-66
2021/12/06 05:27:23;;;;;;;33.90;22.05;;;;;;;-0.06;87.27;99126.09;1789238;79;21046;-66
2021/12/06 05:29:51;;;;;;;33.18;22.87;;;;;;;-0.03;87.24;99126.47;1821524;79;21055;-65
2021/12/06 05:32:15;;;;;;;34.38;23.12;;;;;;;-0.02;87.19;99128.62;1785386;79;21098;-65
2021/12/06 05:34:44;;;;;;;33.38;22.95;;;;;;;-0.02;87.22;99137.48;1786049;79;21046;-66
2021/12/06 05:37:13;;;;;;;34.35;22.27;;;;;;;-0.03;87.27;99133.67;1764097;79;20984;-66
2021/12/06 05:39:39;;;;;;;40.28;24.55;;;;;;;-0.07;87.42;99134.63;1818313;79;20976;-66
2021/12/06 05:42:10;;;;;;;37.35;24.87;;;;;;;-0.03;87.47;99141.70;1797725;79;21046;-66
2021/12/06 05:44:36;;;;;;;37.48;23.27;;;;;;;-0.01;87.40;99136.97;1822137;79;20991;-66
2021/12/06 05:47:03;;;;;;;33.85;21.45;;;;;;;0.03;87.36;99140.84;1795540;78;21561;-66
2021/12/06 05:49:29;;;;;;;34.78;22.17;;;;;;;0.07;87.34;99138.55;1786980;80;21070;-66
2021/12/06 05:51:56;;;;;;;34.35;22.82;;;;;;;0.05;87.35;99139.27;1776563;79;21039;-66
2021/12/06 05:54:23;;;;;;;34.27;23.30;;;;;;;0.03;87.43;99134.67;1786709;79;21024;-67
2021/12/06 05:56:51;;;;;;;34.20;22.93;;;;;;;0.07;87.42;99147.41;1815796;79;21007;-65
2021/12/06 05:59:17;;;;;;;36.30;22.87;;;;;;;0.11;87.34;99149.92;1798592;79;21099;-66
2021/12/06 06:01:45;;;;;;;33.13;21.52;;;;;;;0.16;87.26;99139.91;1802728;79;21537;-68
2021/12/06 06:04:12;;;;;;;34.98;22.07;;;;;;;0.16;87.23;99143.92;1816109;79;21364;-63
2021/12/06 06:06:38;;;;;;;31.50;20.02;;;;;;;0.11;87.30;99146.45;1773168;79;21007;-64
2021/12/06 06:09:05;;;;;;;33.02;22.02;;;;;;;0.08;87.44;99145.01;1764861;79;21088;-66
2021/12/06 06:11:34;;;;;;;35.00;21.62;;;;;;;0.09;87.46;99145.32;1778579;79;21021;-66
2021/12/06 06:14:04;;;;;;;32.98;21.02;;;;;;;0.12;87.34;99140.04;1778494;81;21008;-66
2021/12/06 06:16:32;;;;;;;31.23;20.72;;;;;;;0.13;87.20;99149.72;1779637;79;21023;-66
2021/12/06 06:18:59;;;;;;;38.67;23.52;;;;;;;0.09;87.16;99148.51;1812176;79;21325;-65
2021/12/06 06:21:25;;;;;;;33.40;22.20;;;;;;;0.04;87.24;99153.17;1783016;79;21023;-65
2021/12/06 06:23:52;;;;;;;37.73;22.15;;;;;;;0.03;87.36;99154.74;1799640;79;20972;-65
2021/12/06 06:26:18;;;;;;;34.53;21.90;;;;;;;0.06;87.33;99154.30;1815985;79;21031;-65
2021/12/06 06:28:45;;;;;;;36.13;22.42;;;;;;;0.09;87.24;99157.36;1815888;79;21052;-65
2021/12/06 06:31:11;;;;;;;36.45;22.87;;;;;;;0.11;87.16;99157.16;1815569;79;21075;-65
2021/12/06 06:33:38;;;;;;;40.28;24.35;;;;;;;0.08;87.14;99150.88;1798662;79;21091;-64
2021/12/06 06:36:04;;;;;;;42.50;25.10;;;;;;;0.05;87.27;99154.81;1772791;79;21015;-65
2021/12/06 06:38:30;;;;;;;41.05;23.90;;;;;;;0.04;87.39;99153.72;1778349;81;21046;-64
2021/12/06 06:40:58;;;;;;;46.60;25.90;;;;;;;0.08;87.32;99165.08;1778501;81;21490;-65
2021/12/06 06:43:24;;;;;;;40.85;24.30;;;;;;;0.12;87.29;99166.80;1753604;80;21491;-64
2021/12/06 06:45:50;;;;;;;71.67;36.03;;;;;;;0.13;87.23;99163.92;1747778;81;21020;-65
2021/12/06 06:48:17;;;;;;;63.75;33.42;;;;;;;0.12;87.19;99156.92;1747732;82;21079;-65
2021/12/06 06:50:43;;;;;;;55.45;29.35;;;;;;;0.06;87.32;99163.16;1741344;82;21069;-65
2021/12/06 06:53:10;;;;;;;53.75;29.85;;;;;;;0.05;87.40;99164.19;1729919;81;21106;-64
2021/12/06 06:55:36;;;;;;;46.48;26.17;;;;;;;0.07;87.41;99155.95;1751626;81;21093;-64
2021/12/06 06:58:03;;;;;;;41.73;24.52;;;;;;;0.09;87.34;99153.86;1758112;81;21581;-64
2021/12/06 07:00:33;;;;;;;;;;;;;;;0.11;87.33;99157.95;1760456;81;21034;-64
2021/12/06 07:03:00;;;;;;;40.30;23.55;;;;;;;0.09;87.38;99165.39;1729458;81;20113;-67
2021/12/06 07:05:28;;;;;;;43.28;25.25;;;;;;;0.00;87.61;99164.03;1755572;81;21078;-66
2021/12/06 07:07:56;;;;;;;39.55;22.90;;;;;;;0.04;87.71;99155.84;1741155;81;21595;-65
2021/12/06 07:10:24;;;;;;;44.00;25.68;;;;;;;0.09;87.61;99164.05;1756252;81;20979;-65
2021/12/06 07:12:52;;;;;;;37.48;22.55;;;;;;;0.12;87.54;99161.45;1750236;79;21034;-65
2021/12/06 07:15:24;;;;;;;39.45;23.35;;;;;;;0.13;87.50;99174.62;1730803;81;20987;-67
2021/12/06 07:17:51;;;;;;;42.48;25.70;;;;;;;0.10;87.60;99170.23;1743313;81;21612;-66
2021/12/06 07:20:18;;;;;;;44.08;26.30;;;;;;;0.10;87.71;99179.08;1727976;82;20999;-66
2021/12/06 07:22:45;;;;;;;;;;;;;;;0.15;87.64;99179.75;1730445;82;21580;-67
2021/12/06 07:25:14;;;;;;;37.98;22.95;;;;;;;0.22;87.57;99183.19;1729063;81;20129;-67
2021/12/06 07:27:41;;;;;;;44.70;26.80;;;;;;;0.23;87.57;99176.80;1728499;81;21130;-67
2021/12/06 07:30:09;;;;;;;43.10;25.25;;;;;;;0.25;87.57;99173.41;1739968;81;20987;-66
2021/12/06 07:32:36;;;;;;;45.95;26.33;;;;;;;0.23;87.66;99178.97;1727164;81;21031;-66
2021/12/06 07:35:03;;;;;;;45.65;25.72;;;;;;;0.27;87.73;99182.84;1767030;80;20983;-67
2021/12/06 07:37:29;;;;;;;43.58;25.48;;;;;;;0.32;87.63;99172.83;1752278;80;21039;-67
2021/12/06 07:39:56;;;;;;;42.75;26.00;;;;;;;0.38;87.51;99181.31;1741455;81;21524;-67
2021/12/06 07:42:22;;;;;;;45.33;26.37;;;;;;;0.40;87.41;99182.73;1758009;81;21091;-67
2021/12/06 07:44:50;;;;;;;47.58;26.45;;;;;;;0.41;87.41;99184.38;1739458;81;21007;-67
2021/12/06 07:47:17;;;;;;;44.88;25.97;;;;;;;0.39;87.53;99187.77;1728582;81;21070;-67
2021/12/06 07:49:44;;;;;;;43.23;25.85;;;;;;;0.43;87.61;99185.47;1728236;83;21532;-67
2021/12/06 07:52:10;;;;;;;42.85;23.50;;;;;;;0.48;87.56;99185.65;1749624;81;21612;-67
2021/12/06 07:54:38;;;;;;;45.73;26.35;;;;;;;0.53;87.48;99176.97;1762411;80;20986;-67
2021/12/06 07:57:05;;;;;;;44.90;26.00;;;;;;;0.56;87.33;99178.68;1774838;79;21007;-67
2021/12/06 07:59:33;;;;;;;46.98;27.60;;;;;;;0.56;87.26;99181.36;1780209;80;20990;-66
2021/12/06 08:02:01;;;;;;;48.60;27.77;;;;;;;0.50;87.36;99179.54;1749460;82;21575;-67
2021/12/06 08:04:28;;;;;;;49.45;27.60;;;;;;;0.49;87.47;99190.80;1718462;83;21026;-67
2021/12/06 08:06:54;;;;;;;53.05;27.90;;;;;;;0.53;87.42;99195.20;1718395;83;21058;-67
2021/12/06 08:09:20;;;;;;;43.00;25.68;;;;;;;0.55;87.31;99198.46;1711682;83;21093;-68
2021/12/06 08:11:47;;;;;;;40.20;24.47;;;;;;;0.56;87.28;99198.77;1721297;83;21028;-67
2021/12/06 08:14:13;;;;;;;39.90;23.65;;;;;;;0.52;87.30;99202.09;1705739;83;21128;-67
2021/12/06 08:16:43;;;;;;;42.88;24.43;;;;;;;0.45;87.42;99200.82;1714796;83;21012;-66
2021/12/06 08:19:11;;;;;;;42.58;24.82;;;;;;;0.44;87.47;99210.70;1714155;83;21605;-67
2021/12/06 08:21:37;;;;;;;44.88;27.10;;;;;;;0.47;87.43;99216.14;1724223;83;21039;-68
2021/12/06 08:24:06;;;;;;;43.28;25.72;;;;;;;0.49;87.37;99210.88;1731366;83;21051;-68
2021/12/06 08:26:35;;;;;;;49.98;27.50;;;;;;;0.49;87.33;99210.88;1704534;84;21094;-68
2021/12/06 08:29:06;;;;;;;46.80;27.45;;;;;;;0.45;87.37;99207.52;1704811;84;21079;-67
2021/12/06 08:31:37;;;;;;;45.98;27.32;;;;;;;0.37;87.51;99197.89;1704690;84;21649;-67
2021/12/06 08:34:04;;;;;;;51.55;27.70;;;;;;;0.40;87.67;99203.33;1705217;83;21100;-66
2021/12/06 08:36:30;;;;;;;;;;;;;;;0.43;87.64;99191.66;1707200;84;21064;-66
2021/12/06 08:38:58;;;;;;;;;;;;;;;0.47;87.60;99184.83;1709137;83;20167;-68
2021/12/06 08:41:27;;;;;;;41.30;23.25;;;;;;;0.46;87.62;99179.16;1725313;83;20419;-67
2021/12/06 08:43:54;;;;;;;48.08;26.23;;;;;;;0.39;87.76;99170.91;1719165;83;21551;-66
2021/12/06 08:46:30;;;;;;;50.70;28.17;;;;;;;0.39;87.98;99172.25;1722012;83;21489;-66
2021/12/06 08:48:57;;;;;;;50.08;27.05;;;;;;;0.39;88.07;99166.90;1732446;83;21071;-66
2021/12/06 08:51:30;;;;;;;;;;;;;;;0.48;87.98;99164.22;1727591;82;21076;-66
2021/12/06 08:53:58;;;;;;;47.60;24.70;;;;;;;0.54;87.87;99161.17;1712388;83;20148;-66
2021/12/06 08:56:24;;;;;;;44.10;25.80;;;;;;;0.55;87.83;99158.80;1696173;83;21022;-67
2021/12/06 08:58:51;;;;;;;46.02;27.20;;;;;;;0.59;87.80;99162.68;1708488;83;21063;-67
2021/12/06 09:01:18;;;;;;;47.08;26.25;;;;;;;0.62;87.76;99165.73;1718127;82;20992;-67
2021/12/06 09:03:44;;;;;;;47.85;25.95;;;;;;;0.59;87.83;99160.83;1700556;83;21059;-67
2021/12/06 09:06:12;;;;;;;44.08;24.98;;;;;;;0.61;87.90;99151.21;1687840;85;21091;-67
2021/12/06 09:08:40;;;;;;;46.77;26.00;;;;;;;0.69;87.83;99146.91;1687454;85;21134;-66
2021/12/06 09:11:07;;;;;;;45.25;27.02;;;;;;;0.74;87.67;99141.72;1687840;85;21130;-67
2021/12/06 09:13:34;;;;;;;46.42;26.37;;;;;;;0.76;87.57;99129.73;1690375;83;21668;-67
2021/12/06 09:16:02;;;;;;;53.85;28.62;;;;;;;0.76;87.56;99134.27;1707890;83;21023;-66
2021/12/06 09:18:34;;;;;;;47.88;26.12;;;;;;;0.71;87.66;99124.75;1710156;83;21139;-67
2021/12/06 09:21:02;;;;;;;51.18;26.77;;;;;;;0.70;87.77;99124.45;1688982;83;21044;-66
2021/12/06 09:23:29;;;;;;;45.08;27.95;;;;;;;0.77;87.69;99119.31;1687585;85;21079;-66
2021/12/06 09:25:56;;;;;;;43.55;26.68;;;;;;;0.81;87.53;99120.52;1696171;83;21008;-64
2021/12/06 09:28:22;;;;;;;46.90;28.15;;;;;;;0.82;87.42;99114.09;1701806;83;21115;-68
2021/12/06 09:30:48;;;;;;;48.08;27.42;;;;;;;0.82;87.42;99120.78;1715501;82;21000;-64
2021/12/06 09:33:15;;;;;;;51.02;28.65;;;;;;;0.77;87.55;99120.66;1715928;83;21123;-64
2021/12/06 09:35:44;;;;;;;47.55;27.67;;;;;;;0.79;87.68;99116.40;1716451;83;21609;-64
2021/12/06 09:38:15;;;;;;;45.00;26.15;;;;;;;0.84;87.64;99115.22;1716159;83;21119;-64
2021/12/06 09:40:46;;;;;;;46.70;27.37;;;;;;;0.89;87.54;99108.13;1716473;82;20995;-64
2021/12/06 09:43:13;;;;;;;46.98;26.62;;;;;;;0.92;87.46;99109.56;1716079;83;21512;-63
2021/12/06 09:45:40;;;;;;;46.75;26.93;;;;;;;0.90;87.45;99096.38;1716398;83;20996;-64
2021/12/06 09:48:07;;;;;;;45.43;26.62;;;;;;;0.87;87.54;99099.51;1716181;83;21070;-64
2021/12/06 09:50:44;;;;;;;49.23;28.12;;;;;;;0.88;87.64;99096.31;1716374;83;21526;-64
2021/12/06 09:53:14;;;;;;;41.18;24.02;;;;;;;0.92;87.58;99096.16;1712610;83;21418;-64
2021/12/06 09:55:42;;;;;;;48.42;28.07;;;;;;;0.95;87.48;99089.02;1751335;82;21008;-64
2021/12/06 09:58:09;;;;;;;52.60;28.47;;;;;;;0.94;87.43;99087.36;1751159;82;21093;-64
2021/12/06 10:00:41;;;;;;;42.90;24.15;;;;;;;0.89;87.52;99094.73;1751361;82;21064;-65
2021/12/06 10:03:09;;;;;;;46.42;26.40;;;;;;;0.86;87.62;99092.50;1788243;80;21011;-64
2021/12/06 10:05:38;;;;;;;45.50;26.00;;;;;;;0.85;87.57;99098.11;1788491;80;21047;-64
2021/12/06 10:08:04;;;;;;;43.28;25.20;;;;;;;0.86;87.54;99091.16;1788500;80;21059;-65
2021/12/06 10:10:31;;;;;;;43.05;24.65;;;;;;;0.86;87.48;99095.19;1788334;80;21007;-66
2021/12/06 10:12:57;;;;;;;;;;;;;;;0.86;87.47;99089.83;1791259;80;21055;-65
2021/12/06 10:15:27;;;;;;;53.68;27.58;;;;;;;0.81;87.57;99084.34;1788731;80;20115;-65
2021/12/06 10:17:56;;;;;;;53.08;28.23;;;;;;;0.74;87.90;99083.60;1788744;80;21043;-65
2021/12/06 10:20:22;;;;;;;50.60;27.32;;;;;;;0.80;88.01;99076.52;1788821;80;21026;-65
2021/12/06 10:22:50;;;;;;;47.93;27.30;;;;;;;0.86;87.92;99079.63;1788637;80;21023;-65
2021/12/06 10:25:17;;;;;;;48.98;26.33;;;;;;;0.90;87.81;99080.30;1788814;79;21504;-65
2021/12/06 10:27:57;;;;;;;50.83;27.52;;;;;;;0.91;87.74;99083.80;1788784;80;21102;-64
2021/12/06 10:30:25;;;;;;;46.42;25.52;;;;;;;0.88;87.84;99077.04;1788836;80;21502;-64
2021/12/06 10:33:02;;;;;;;48.23;27.27;;;;;;;0.90;87.90;99072.26;1788528;80;21027;-64
2021/12/06 10:35:28;;;;;;;42.80;26.07;;;;;;;0.96;87.85;99069.19;1788615;80;21526;-65
2021/12/06 10:37:57;;;;;;;;;;;;;;;0.99;87.67;99071.44;1791103;80;21047;-65
2021/12/06 10:40:30;;;;;;;42.83;24.07;;;;;;;1.01;87.58;99076.03;1788776;79;20450;-65
2021/12/06 10:43:01;;;;;;;52.65;26.48;;;;;;;0.96;87.64;99077.23;1788473;80;21530;-65
2021/12/06 10:45:31;;;;;;;48.45;26.93;;;;;;;0.91;87.82;99077.10;1788669;80;21513;-65
2021/12/06 10:48:18;;;;;;;46.05;27.13;;;;;;;0.91;87.93;99067.20;1788230;80;21104;-64
2021/12/06 10:50:50;;;;;;;46.37;26.40;;;;;;;0.97;87.88;99063.61;1788952;80;21027;-64
2021/12/06 10:53:17;;;;;;;50.15;27.37;;;;;;;1.02;87.75;99061.60;1782250;80;21063;-64
2021/12/06 10:55:44;;;;;;;49.48;28.67;;;;;;;1.05;87.72;99063.83;1783715;80;21561;-64
2021/12/06 10:58:16;;;;;;;51.33;28.67;;;;;;;1.07;87.64;99069.77;1783865;80;21043;-64
2021/12/06 11:00:51;;;;;;;51.50;28.83;;;;;;;1.03;87.69;99068.58;1783935;80;21018;-64
2021/12/06 11:03:31;;;;;;;49.13;28.55;;;;;;;1.02;87.76;99079.54;1783823;80;21098;-65
2021/12/06 11:07:06;;;;;;;48.73;27.17;;;;;;;1.08;87.66;99081.31;1800084;79;22519;-64
2021/12/06 11:09:36;;;;;;;47.75;26.73;;;;;;;0.97;87.64;99071.66;1752846;82;21038;-64
2021/12/06 11:12:04;;;;;;;49.48;28.45;;;;;;;0.91;87.79;99077.10;1752927;82;21536;-64
2021/12/06 11:14:37;;;;;;;56.90;28.57;;;;;;;0.94;87.89;99068.09;1753095;82;21608;-64
2021/12/06 11:17:08;;;;;;;53.30;30.48;;;;;;;0.97;87.79;99066.30;1753040;82;21506;-64
2021/12/06 11:19:34;;;;;;;56.58;30.50;;;;;;;0.97;87.66;99064.95;1753300;82;21350;-64
2021/12/06 11:22:06;;;;;;;;;;;;;;;0.94;87.72;99060.56;1755484;82;21038;-65
2021/12/06 11:24:39;;;;;;;50.05;26.05;;;;;;;0.95;87.88;99063.55;1752721;81;20102;-64
2021/12/06 11:27:09;;;;;;;48.17;25.90;;;;;;;0.96;87.94;99059.80;1753056;82;21026;-64
2021/12/06 11:29:40;;;;;;;43.90;24.12;;;;;;;0.99;87.88;99066.87;1752975;82;21026;-64
2021/12/06 11:32:20;;;;;;;49.35;27.62;;;;;;;0.99;87.80;99066.08;1753276;82;21026;-64
2021/12/06 11:34:59;;;;;;;54.75;28.40;;;;;;;0.94;87.82;99059.23;1752683;82;21023;-64
2021/12/06 11:37:48;;;;;;;46.18;25.50;;;;;;;0.90;87.89;99061.54;1753023;82;21054;-64
2021/12/06 11:40:35;;;;;;;44.65;25.80;;;;;;;0.93;87.87;99050.88;1753223;82;21057;-64
2021/12/06 11:43:07;;;;;;;55.55;27.48;;;;;;;0.96;87.83;99055.78;1752863;82;21023;-63
2021/12/06 11:45:46;;;;;;;51.65;26.77;;;;;;;0.93;87.96;99059.75;1752678;82;21042;-64
2021/12/06 11:48:14;;;;;;;44.15;25.95;;;;;;;0.94;88.05;99058.70;1752997;81;21019;-63
2021/12/06 11:50:51;;;;;;;46.40;25.75;;;;;;;0.98;87.95;99052.38;1752860;82;21062;-64